sensor_id;sensor_type;location;lat;lon;timestamp;temperature;humidity
30865;DHT22;17574;49.418;11.038;2022-07-10T00:00:10;16.90;56.50
30865;DHT22;17574;49.418;11.038;2022-07-10T00:02:38;16.90;56.50
30865;DHT22;17574;49.418;11.038;2022-07-10T00:05:05;16.80;56.50
30865;DHT22;17574;49.418;11.038;2022-07-10T00:07:32;16.80;57.30
30865;DHT22;17574;49.418;11.038;2022-07-10T00:09:59;16.70;58.40
30865;DHT22;17574;49.418;11.038;2022-07-10T00:12:25;16.70;59.00
30865;DHT22;17574;49.418;11.038;2022-07-10T00:14:52;16.70;58.80
30865;DHT22;17574;49.418;11.038;2022-07-10T00:17:19;16.60;59.30
30865;DHT22;17574;49.418;11.038;2022-07-10T00:19:45;16.60;59.70
30865;DHT22;17574;49.418;11.038;2022-07-10T00:22:12;16.60;60.90
30865;DHT22;17574;49.418;11.038;2022-07-10T00:24:39;16.60;60.40
30865;DHT22;17574;49.418;11.038;2022-07-10T00:27:06;16.50;60.90
30865;DHT22;17574;49.418;11.038;2022-07-10T00:29:32;16.50;61.20
30865;DHT22;17574;49.418;11.038;2022-07-10T00:31:59;16.50;61.90
30865;DHT22;17574;49.418;11.038;2022-07-10T00:34:26;16.40;62.20
30865;DHT22;17574;49.418;11.038;2022-07-10T00:36:52;16.40;62.10
30865;DHT22;17574;49.418;11.038;2022-07-10T00:39:19;16.30;62.80
30865;DHT22;17574;49.418;11.038;2022-07-10T00:41:45;16.40;62.60
30865;DHT22;17574;49.418;11.038;2022-07-10T00:44:12;16.70;63.20
30865;DHT22;17574;49.418;11.038;2022-07-10T00:46:39;16.30;64.20
30865;DHT22;17574;49.418;11.038;2022-07-10T00:49:07;16.20;65.50
30865;DHT22;17574;49.418;11.038;2022-07-10T00:51:33;16.20;65.40
30865;DHT22;17574;49.418;11.038;2022-07-10T00:54:00;16.10;65.40
30865;DHT22;17574;49.418;11.038;2022-07-10T00:56:27;16.10;65.40
30865;DHT22;17574;49.418;11.038;2022-07-10T00:58:54;16.10;65.40
30865;DHT22;17574;49.418;11.038;2022-07-10T01:01:21;16.10;65.40
30865;DHT22;17574;49.418;11.038;2022-07-10T01:03:51;16.00;65.30
30865;DHT22;17574;49.418;11.038;2022-07-10T01:06:18;16.00;65.90
30865;DHT22;17574;49.418;11.038;2022-07-10T01:08:45;16.00;66.30
30865;DHT22;17574;49.418;11.038;2022-07-10T01:11:13;16.00;68.00
30865;DHT22;17574;49.418;11.038;2022-07-10T01:13:39;15.90;68.50
30865;DHT22;17574;49.418;11.038;2022-07-10T01:16:06;15.90;68.90
30865;DHT22;17574;49.418;11.038;2022-07-10T01:18:33;15.80;68.60
30865;DHT22;17574;49.418;11.038;2022-07-10T01:21:00;15.80;69.20
30865;DHT22;17574;49.418;11.038;2022-07-10T01:23:27;15.80;69.40
30865;DHT22;17574;49.418;11.038;2022-07-10T01:25:53;15.80;69.90
30865;DHT22;17574;49.418;11.038;2022-07-10T01:28:20;15.80;70.30
30865;DHT22;17574;49.418;11.038;2022-07-10T01:30:47;15.70;70.30
30865;DHT22;17574;49.418;11.038;2022-07-10T01:33:14;15.70;70.10
30865;DHT22;17574;49.418;11.038;2022-07-10T01:35:41;15.70;70.80
30865;DHT22;17574;49.418;11.038;2022-07-10T01:38:08;15.70;71.70
30865;DHT22;17574;49.418;11.038;2022-07-10T01:40:34;15.70;71.70
30865;DHT22;17574;49.418;11.038;2022-07-10T01:43:01;15.70;73.30
30865;DHT22;17574;49.418;11.038;2022-07-10T01:45:27;15.70;73.30
30865;DHT22;17574;49.418;11.038;2022-07-10T01:47:54;15.60;73.80
30865;DHT22;17574;49.418;11.038;2022-07-10T01:50:21;15.60;73.70
30865;DHT22;17574;49.418;11.038;2022-07-10T01:52:47;15.60;73.70
30865;DHT22;17574;49.418;11.038;2022-07-10T01:55:14;15.60;73.80
30865;DHT22;17574;49.418;11.038;2022-07-10T01:57:41;15.60;73.70
30865;DHT22;17574;49.418;11.038;2022-07-10T02:00:08;15.60;73.80
30865;DHT22;17574;49.418;11.038;2022-07-10T02:02:35;15.60;74.30
30865;DHT22;17574;49.418;11.038;2022-07-10T02:05:03;15.60;74.20
30865;DHT22;17574;49.418;11.038;2022-07-10T02:07:29;15.60;75.20
30865;DHT22;17574;49.418;11.038;2022-07-10T02:09:56;15.70;74.70
30865;DHT22;17574;49.418;11.038;2022-07-10T02:12:23;15.70;75.30
30865;DHT22;17574;49.418;11.038;2022-07-10T02:14:49;15.70;75.20
30865;DHT22;17574;49.418;11.038;2022-07-10T02:17:16;15.70;74.60
30865;DHT22;17574;49.418;11.038;2022-07-10T02:19:42;15.70;74.40
30865;DHT22;17574;49.418;11.038;2022-07-10T02:22:09;15.70;73.80
30865;DHT22;17574;49.418;11.038;2022-07-10T02:24:36;15.60;73.70
30865;DHT22;17574;49.418;11.038;2022-07-10T02:27:02;15.70;72.70
30865;DHT22;17574;49.418;11.038;2022-07-10T02:29:29;15.60;71.70
30865;DHT22;17574;49.418;11.038;2022-07-10T02:31:56;15.60;71.00
30865;DHT22;17574;49.418;11.038;2022-07-10T02:34:23;15.60;70.30
30865;DHT22;17574;49.418;11.038;2022-07-10T02:36:49;15.60;70.60
30865;DHT22;17574;49.418;11.038;2022-07-10T02:39:17;15.70;69.00
30865;DHT22;17574;49.418;11.038;2022-07-10T02:41:45;15.70;65.00
30865;DHT22;17574;49.418;11.038;2022-07-10T02:44:12;15.70;65.00
30865;DHT22;17574;49.418;11.038;2022-07-10T02:46:38;15.70;65.00
30865;DHT22;17574;49.418;11.038;2022-07-10T02:49:05;15.70;64.00
30865;DHT22;17574;49.418;11.038;2022-07-10T02:51:32;15.70;62.90
30865;DHT22;17574;49.418;11.038;2022-07-10T02:53:58;15.70;60.50
30865;DHT22;17574;49.418;11.038;2022-07-10T02:56:25;15.80;59.40
30865;DHT22;17574;49.418;11.038;2022-07-10T02:58:52;15.70;57.00
30865;DHT22;17574;49.418;11.038;2022-07-10T03:01:18;15.80;55.50
30865;DHT22;17574;49.418;11.038;2022-07-10T03:03:45;15.80;55.40
30865;DHT22;17574;49.418;11.038;2022-07-10T03:06:12;15.80;53.40
30865;DHT22;17574;49.418;11.038;2022-07-10T03:08:39;15.90;52.20
30865;DHT22;17574;49.418;11.038;2022-07-10T03:11:07;15.90;50.80
30865;DHT22;17574;49.418;11.038;2022-07-10T03:13:33;15.90;49.10
30865;DHT22;17574;49.418;11.038;2022-07-10T03:16:00;15.80;48.00
30865;DHT22;17574;49.418;11.038;2022-07-10T03:18:27;15.80;48.20
30865;DHT22;17574;49.418;11.038;2022-07-10T03:20:53;15.80;48.30
30865;DHT22;17574;49.418;11.038;2022-07-10T03:23:20;15.80;48.00
30865;DHT22;17574;49.418;11.038;2022-07-10T03:25:47;15.80;47.90
30865;DHT22;17574;49.418;11.038;2022-07-10T03:28:13;15.70;47.10
30865;DHT22;17574;49.418;11.038;2022-07-10T03:30:40;15.80;46.90
30865;DHT22;17574;49.418;11.038;2022-07-10T03:33:07;15.70;47.40
30865;DHT22;17574;49.418;11.038;2022-07-10T03:35:34;15.70;48.80
30865;DHT22;17574;49.418;11.038;2022-07-10T03:38:01;15.70;49.50
30865;DHT22;17574;49.418;11.038;2022-07-10T03:40:28;15.70;50.60
30865;DHT22;17574;49.418;11.038;2022-07-10T03:42:55;15.70;53.30
30865;DHT22;17574;49.418;11.038;2022-07-10T03:45:21;15.70;53.20
30865;DHT22;17574;49.418;11.038;2022-07-10T03:47:48;15.70;55.30
30865;DHT22;17574;49.418;11.038;2022-07-10T03:50:14;15.70;55.30
30865;DHT22;17574;49.418;11.038;2022-07-10T03:52:41;15.70;54.70
30865;DHT22;17574;49.418;11.038;2022-07-10T03:55:08;15.70;54.30
30865;DHT22;17574;49.418;11.038;2022-07-10T03:57:34;15.70;51.50
30865;DHT22;17574;49.418;11.038;2022-07-10T04:00:23;15.70;50.90
30865;DHT22;17574;49.418;11.038;2022-07-10T04:02:54;15.70;50.80
30865;DHT22;17574;49.418;11.038;2022-07-10T04:05:21;15.70;51.60
30865;DHT22;17574;49.418;11.038;2022-07-10T04:07:48;15.70;47.70
30865;DHT22;17574;49.418;11.038;2022-07-10T04:10:15;15.70;47.60
30865;DHT22;17574;49.418;11.038;2022-07-10T04:12:42;15.70;45.70
30865;DHT22;17574;49.418;11.038;2022-07-10T04:15:09;15.70;44.50
30865;DHT22;17574;49.418;11.038;2022-07-10T04:17:36;15.70;44.50
30865;DHT22;17574;49.418;11.038;2022-07-10T04:20:03;15.70;44.50
30865;DHT22;17574;49.418;11.038;2022-07-10T04:22:29;15.70;43.10
30865;DHT22;17574;49.418;11.038;2022-07-10T04:24:56;15.70;41.60
30865;DHT22;17574;49.418;11.038;2022-07-10T04:27:23;15.70;39.30
30865;DHT22;17574;49.418;11.038;2022-07-10T04:29:49;15.80;41.00
30865;DHT22;17574;49.418;11.038;2022-07-10T04:32:16;15.70;39.00
30865;DHT22;17574;49.418;11.038;2022-07-10T04:34:42;15.80;37.50
30865;DHT22;17574;49.418;11.038;2022-07-10T04:37:09;15.90;35.80
30865;DHT22;17574;49.418;11.038;2022-07-10T04:39:36;15.80;33.30
30865;DHT22;17574;49.418;11.038;2022-07-10T04:42:06;15.80;30.50
30865;DHT22;17574;49.418;11.038;2022-07-10T04:44:33;15.90;28.30
30865;DHT22;17574;49.418;11.038;2022-07-10T04:47:00;15.90;27.10
30865;DHT22;17574;49.418;11.038;2022-07-10T04:49:27;15.90;27.30
30865;DHT22;17574;49.418;11.038;2022-07-10T04:51:54;15.90;25.50
30865;DHT22;17574;49.418;11.038;2022-07-10T04:54:21;15.90;23.70
30865;DHT22;17574;49.418;11.038;2022-07-10T04:56:47;15.90;23.50
30865;DHT22;17574;49.418;11.038;2022-07-10T04:59:14;15.90;19.90
30865;DHT22;17574;49.418;11.038;2022-07-10T05:01:41;15.90;19.90
30865;DHT22;17574;49.418;11.038;2022-07-10T05:04:07;15.90;19.80
30865;DHT22;17574;49.418;11.038;2022-07-10T05:06:34;15.90;20.20
30865;DHT22;17574;49.418;11.038;2022-07-10T05:09:02;15.90;23.70
30865;DHT22;17574;49.418;11.038;2022-07-10T05:11:28;15.80;23.60
30865;DHT22;17574;49.418;11.038;2022-07-10T05:13:55;15.80;25.10
30865;DHT22;17574;49.418;11.038;2022-07-10T05:16:22;15.80;27.50
30865;DHT22;17574;49.418;11.038;2022-07-10T05:18:49;15.90;29.00
30865;DHT22;17574;49.418;11.038;2022-07-10T05:21:16;16.00;25.10
30865;DHT22;17574;49.418;11.038;2022-07-10T05:23:42;16.20;23.90
30865;DHT22;17574;49.418;11.038;2022-07-10T05:26:09;16.40;22.90
30865;DHT22;17574;49.418;11.038;2022-07-10T05:28:36;16.50;20.60
30865;DHT22;17574;49.418;11.038;2022-07-10T05:31:03;16.50;21.30
30865;DHT22;17574;49.418;11.038;2022-07-10T05:33:29;16.70;19.70
30865;DHT22;17574;49.418;11.038;2022-07-10T05:35:56;16.90;17.50
30865;DHT22;17574;49.418;11.038;2022-07-10T05:38:23;17.00;16.00
30865;DHT22;17574;49.418;11.038;2022-07-10T05:40:50;17.10;14.80
30865;DHT22;17574;49.418;11.038;2022-07-10T05:43:17;17.30;12.30
30865;DHT22;17574;49.418;11.038;2022-07-10T05:45:44;17.30;10.60
30865;DHT22;17574;49.418;11.038;2022-07-10T05:48:15;17.40;7.00
30865;DHT22;17574;49.418;11.038;2022-07-10T05:50:42;17.50;4.40
30865;DHT22;17574;49.418;11.038;2022-07-10T05:53:08;17.50;4.70
30865;DHT22;17574;49.418;11.038;2022-07-10T05:55:35;17.80;1.00
30865;DHT22;17574;49.418;11.038;2022-07-10T05:58:01;17.80;1.00
30865;DHT22;17574;49.418;11.038;2022-07-10T06:00:28;17.80;1.00
30865;DHT22;17574;49.418;11.038;2022-07-10T06:02:55;17.70;1.00
30865;DHT22;17574;49.418;11.038;2022-07-10T06:05:21;18.10;1.00
30865;DHT22;17574;49.418;11.038;2022-07-10T06:07:49;18.30;1.00
30865;DHT22;17574;49.418;11.038;2022-07-10T06:10:15;18.60;1.00
30865;DHT22;17574;49.418;11.038;2022-07-10T06:12:42;18.80;1.00
30865;DHT22;17574;49.418;11.038;2022-07-10T06:15:09;19.20;1.00
30865;DHT22;17574;49.418;11.038;2022-07-10T06:17:43;19.30;1.00
30865;DHT22;17574;49.418;11.038;2022-07-10T06:20:10;19.40;1.00
30865;DHT22;17574;49.418;11.038;2022-07-10T06:22:37;19.70;1.00
30865;DHT22;17574;49.418;11.038;2022-07-10T06:25:05;19.70;1.00
30865;DHT22;17574;49.418;11.038;2022-07-10T06:27:32;19.80;1.00
30865;DHT22;17574;49.418;11.038;2022-07-10T06:29:59;19.90;1.00
30865;DHT22;17574;49.418;11.038;2022-07-10T06:32:26;20.10;1.00
30865;DHT22;17574;49.418;11.038;2022-07-10T06:34:53;20.20;1.00
30865;DHT22;17574;49.418;11.038;2022-07-10T06:37:20;20.10;1.00
30865;DHT22;17574;49.418;11.038;2022-07-10T06:39:47;20.40;1.00
30865;DHT22;17574;49.418;11.038;2022-07-10T06:42:14;20.60;1.00
30865;DHT22;17574;49.418;11.038;2022-07-10T06:44:41;20.80;1.00
30865;DHT22;17574;49.418;11.038;2022-07-10T06:47:08;21.10;1.00
30865;DHT22;17574;49.418;11.038;2022-07-10T06:49:54;21.20;1.00
30865;DHT22;17574;49.418;11.038;2022-07-10T06:52:20;21.40;1.00
30865;DHT22;17574;49.418;11.038;2022-07-10T06:54:47;21.60;1.00
30865;DHT22;17574;49.418;11.038;2022-07-10T06:57:14;21.80;1.00
30865;DHT22;17574;49.418;11.038;2022-07-10T06:59:41;21.90;1.00
30865;DHT22;17574;49.418;11.038;2022-07-10T07:02:07;22.10;1.00
30865;DHT22;17574;49.418;11.038;2022-07-10T07:04:34;21.80;1.00
30865;DHT22;17574;49.418;11.038;2022-07-10T07:07:01;21.60;1.00
30865;DHT22;17574;49.418;11.038;2022-07-10T07:09:28;21.40;1.00
30865;DHT22;17574;49.418;11.038;2022-07-10T07:11:55;21.10;1.00
30865;DHT22;17574;49.418;11.038;2022-07-10T07:14:21;20.80;1.00
30865;DHT22;17574;49.418;11.038;2022-07-10T07:16:48;21.10;1.00
30865;DHT22;17574;49.418;11.038;2022-07-10T07:19:24;21.30;1.00
30865;DHT22;17574;49.418;11.038;2022-07-10T07:21:58;21.80;1.00
30865;DHT22;17574;49.418;11.038;2022-07-10T07:24:43;22.10;1.00
30865;DHT22;17574;49.418;11.038;2022-07-10T07:27:10;22.10;1.00
30865;DHT22;17574;49.418;11.038;2022-07-10T07:29:37;21.80;1.00
30865;DHT22;17574;49.418;11.038;2022-07-10T07:32:04;21.80;1.00
30865;DHT22;17574;49.418;11.038;2022-07-10T07:34:31;21.70;1.00
30865;DHT22;17574;49.418;11.038;2022-07-10T07:36:57;21.40;1.00
30865;DHT22;17574;49.418;11.038;2022-07-10T07:39:24;21.30;1.00
30865;DHT22;17574;49.418;11.038;2022-07-10T07:41:51;21.20;1.00
30865;DHT22;17574;49.418;11.038;2022-07-10T07:44:17;21.30;1.00
30865;DHT22;17574;49.418;11.038;2022-07-10T07:46:44;21.90;1.00
30865;DHT22;17574;49.418;11.038;2022-07-10T07:49:11;22.30;1.00
30865;DHT22;17574;49.418;11.038;2022-07-10T07:51:37;22.40;1.00
30865;DHT22;17574;49.418;11.038;2022-07-10T07:54:04;22.50;1.00
30865;DHT22;17574;49.418;11.038;2022-07-10T07:56:31;22.30;1.00
30865;DHT22;17574;49.418;11.038;2022-07-10T07:58:57;22.00;1.00
30865;DHT22;17574;49.418;11.038;2022-07-10T08:01:24;22.00;1.00
30865;DHT22;17574;49.418;11.038;2022-07-10T08:03:51;21.80;1.00
30865;DHT22;17574;49.418;11.038;2022-07-10T08:06:36;21.80;1.00
30865;DHT22;17574;49.418;11.038;2022-07-10T08:09:02;21.50;1.00
30865;DHT22;17574;49.418;11.038;2022-07-10T08:11:29;21.80;1.00
30865;DHT22;17574;49.418;11.038;2022-07-10T08:13:56;21.80;1.00
30865;DHT22;17574;49.418;11.038;2022-07-10T08:16:22;21.80;1.00
30865;DHT22;17574;49.418;11.038;2022-07-10T08:18:49;21.60;1.00
30865;DHT22;17574;49.418;11.038;2022-07-10T08:21:17;21.60;1.00
30865;DHT22;17574;49.418;11.038;2022-07-10T08:23:44;21.50;1.00
30865;DHT22;17574;49.418;11.038;2022-07-10T08:26:10;21.50;1.00
30865;DHT22;17574;49.418;11.038;2022-07-10T08:28:37;21.50;1.00
30865;DHT22;17574;49.418;11.038;2022-07-10T08:31:04;21.10;1.00
30865;DHT22;17574;49.418;11.038;2022-07-10T08:33:31;20.80;1.00
30865;DHT22;17574;49.418;11.038;2022-07-10T08:35:57;20.80;1.00
30865;DHT22;17574;49.418;11.038;2022-07-10T08:38:46;20.80;1.00
30865;DHT22;17574;49.418;11.038;2022-07-10T08:41:13;21.20;1.00
30865;DHT22;17574;49.418;11.038;2022-07-10T08:43:40;21.40;1.00
30865;DHT22;17574;49.418;11.038;2022-07-10T08:46:08;21.70;1.00
30865;DHT22;17574;49.418;11.038;2022-07-10T08:48:38;21.80;1.00
30865;DHT22;17574;49.418;11.038;2022-07-10T08:51:06;22.00;1.00
30865;DHT22;17574;49.418;11.038;2022-07-10T08:53:33;22.00;1.00
30865;DHT22;17574;49.418;11.038;2022-07-10T08:56:01;22.80;1.00
30865;DHT22;17574;49.418;11.038;2022-07-10T08:58:27;23.60;1.00
30865;DHT22;17574;49.418;11.038;2022-07-10T09:00:54;24.90;1.00
30865;DHT22;17574;49.418;11.038;2022-07-10T09:03:21;26.40;1.00
30865;DHT22;17574;49.418;11.038;2022-07-10T09:05:47;28.00;1.00
30865;DHT22;17574;49.418;11.038;2022-07-10T09:08:57;28.00;1.00
30865;DHT22;17574;49.418;11.038;2022-07-10T09:11:15;26.70;1.00
30865;DHT22;17574;49.418;11.038;2022-07-10T09:13:55;26.00;1.00
30865;DHT22;17574;49.418;11.038;2022-07-10T09:16:29;27.50;1.00
30865;DHT22;17574;49.418;11.038;2022-07-10T09:18:56;29.10;1.00
30865;DHT22;17574;49.418;11.038;2022-07-10T09:21:23;30.00;1.00
30865;DHT22;17574;49.418;11.038;2022-07-10T09:23:55;29.60;1.00
30865;DHT22;17574;49.418;11.038;2022-07-10T09:26:25;27.90;1.00
30865;DHT22;17574;49.418;11.038;2022-07-10T09:29:04;26.70;1.00
30865;DHT22;17574;49.418;11.038;2022-07-10T09:31:31;26.50;1.00
30865;DHT22;17574;49.418;11.038;2022-07-10T09:34:13;27.00;1.00
30865;DHT22;17574;49.418;11.038;2022-07-10T09:36:40;26.80;1.00
30865;DHT22;17574;49.418;11.038;2022-07-10T09:39:07;26.50;1.00
30865;DHT22;17574;49.418;11.038;2022-07-10T09:41:33;25.80;1.00
30865;DHT22;17574;49.418;11.038;2022-07-10T09:49:12;24.70;1.00
30865;DHT22;17574;49.418;11.038;2022-07-10T09:51:43;24.90;1.00
30865;DHT22;17574;49.418;11.038;2022-07-10T09:54:15;25.30;1.00
30865;DHT22;17574;49.418;11.038;2022-07-10T09:59:10;24.60;1.00
30865;DHT22;17574;49.418;11.038;2022-07-10T10:01:40;24.40;1.00
30865;DHT22;17574;49.418;11.038;2022-07-10T10:04:08;23.90;1.00
30865;DHT22;17574;49.418;11.038;2022-07-10T10:06:36;23.80;1.00
30865;DHT22;17574;49.418;11.038;2022-07-10T10:11:38;23.20;1.00
30865;DHT22;17574;49.418;11.038;2022-07-10T10:14:06;23.00;1.00
30865;DHT22;17574;49.418;11.038;2022-07-10T10:16:33;22.90;1.00
30865;DHT22;17574;49.418;11.038;2022-07-10T10:19:03;22.40;1.00
30865;DHT22;17574;49.418;11.038;2022-07-10T10:21:48;22.70;1.00
30865;DHT22;17574;49.418;11.038;2022-07-10T10:24:15;22.80;1.00
30865;DHT22;17574;49.418;11.038;2022-07-10T10:26:42;22.30;1.00
30865;DHT22;17574;49.418;11.038;2022-07-10T10:29:10;22.30;1.00
30865;DHT22;17574;49.418;11.038;2022-07-10T10:31:37;22.00;1.00
30865;DHT22;17574;49.418;11.038;2022-07-10T10:34:04;21.70;1.00
30865;DHT22;17574;49.418;11.038;2022-07-10T10:36:52;21.60;1.00
30865;DHT22;17574;49.418;11.038;2022-07-10T10:39:18;21.40;1.00
30865;DHT22;17574;49.418;11.038;2022-07-10T10:47:03;21.10;1.00
30865;DHT22;17574;49.418;11.038;2022-07-10T10:49:52;21.30;1.00
30865;DHT22;17574;49.418;11.038;2022-07-10T10:52:19;21.30;1.00
30865;DHT22;17574;49.418;11.038;2022-07-10T10:57:35;21.80;1.00
30865;DHT22;17574;49.418;11.038;2022-07-10T11:00:04;22.00;1.00
30865;DHT22;17574;49.418;11.038;2022-07-10T11:02:36;22.00;1.00
30865;DHT22;17574;49.418;11.038;2022-07-10T11:07:51;22.50;1.00
30865;DHT22;17574;49.418;11.038;2022-07-10T11:10:32;23.50;1.00
30865;DHT22;17574;49.418;11.038;2022-07-10T11:15:26;25.30;1.00
30865;DHT22;17574;49.418;11.038;2022-07-10T11:17:56;25.70;1.00
30865;DHT22;17574;49.418;11.038;2022-07-10T11:20:24;25.60;1.00
30865;DHT22;17574;49.418;11.038;2022-07-10T11:28:07;23.90;1.00
30865;DHT22;17574;49.418;11.038;2022-07-10T11:30:49;23.50;1.00
30865;DHT22;17574;49.418;11.038;2022-07-10T11:33:16;23.40;1.00
30865;DHT22;17574;49.418;11.038;2022-07-10T11:35:44;23.20;1.00
30865;DHT22;17574;49.418;11.038;2022-07-10T11:38:11;23.10;1.00
30865;DHT22;17574;49.418;11.038;2022-07-10T11:40:37;22.40;1.00
30865;DHT22;17574;49.418;11.038;2022-07-10T11:43:04;22.20;1.00
30865;DHT22;17574;49.418;11.038;2022-07-10T11:45:33;22.00;1.00
30865;DHT22;17574;49.418;11.038;2022-07-10T11:48:03;22.00;1.00
30865;DHT22;17574;49.418;11.038;2022-07-10T11:50:37;21.70;1.00
30865;DHT22;17574;49.418;11.038;2022-07-10T11:53:04;21.70;1.00
30865;DHT22;17574;49.418;11.038;2022-07-10T11:55:31;21.60;1.00
30865;DHT22;17574;49.418;11.038;2022-07-10T11:58:15;21.60;1.00
30865;DHT22;17574;49.418;11.038;2022-07-10T12:00:42;21.60;1.00
30865;DHT22;17574;49.418;11.038;2022-07-10T12:03:19;21.80;1.00
30865;DHT22;17574;49.418;11.038;2022-07-10T12:05:54;22.00;1.00
30865;DHT22;17574;49.418;11.038;2022-07-10T12:08:21;22.00;1.00
30865;DHT22;17574;49.418;11.038;2022-07-10T12:10:47;22.60;1.00
30865;DHT22;17574;49.418;11.038;2022-07-10T12:13:14;22.60;1.00
30865;DHT22;17574;49.418;11.038;2022-07-10T12:15:43;23.10;1.00
30865;DHT22;17574;49.418;11.038;2022-07-10T12:18:16;23.20;1.00
30865;DHT22;17574;49.418;11.038;2022-07-10T12:20:44;23.10;1.00
30865;DHT22;17574;49.418;11.038;2022-07-10T12:23:17;23.20;1.00
30865;DHT22;17574;49.418;11.038;2022-07-10T12:25:44;23.10;1.00
30865;DHT22;17574;49.418;11.038;2022-07-10T12:28:11;23.40;1.00
30865;DHT22;17574;49.418;11.038;2022-07-10T12:30:39;23.80;1.00
30865;DHT22;17574;49.418;11.038;2022-07-10T12:33:07;24.20;1.00
30865;DHT22;17574;49.418;11.038;2022-07-10T12:35:45;24.70;1.00
30865;DHT22;17574;49.418;11.038;2022-07-10T12:38:19;25.00;1.00
30865;DHT22;17574;49.418;11.038;2022-07-10T12:40:45;24.90;1.00
30865;DHT22;17574;49.418;11.038;2022-07-10T12:43:12;24.90;1.00
30865;DHT22;17574;49.418;11.038;2022-07-10T12:48:35;24.20;1.00
30865;DHT22;17574;49.418;11.038;2022-07-10T12:53:47;23.60;1.00
30865;DHT22;17574;49.418;11.038;2022-07-10T12:56:33;23.20;1.00
30865;DHT22;17574;49.418;11.038;2022-07-10T12:59:01;23.00;1.00
30865;DHT22;17574;49.418;11.038;2022-07-10T13:01:42;22.30;1.00
30865;DHT22;17574;49.418;11.038;2022-07-10T13:04:09;22.40;1.00
30865;DHT22;17574;49.418;11.038;2022-07-10T13:06:37;22.30;1.00
30865;DHT22;17574;49.418;11.038;2022-07-10T13:09:24;22.40;1.00
30865;DHT22;17574;49.418;11.038;2022-07-10T13:11:51;22.60;1.00
30865;DHT22;17574;49.418;11.038;2022-07-10T13:14:18;22.70;1.00
30865;DHT22;17574;49.418;11.038;2022-07-10T13:16:45;22.70;1.00
30865;DHT22;17574;49.418;11.038;2022-07-10T13:19:12;22.40;1.00
30865;DHT22;17574;49.418;11.038;2022-07-10T13:21:39;22.40;1.00
30865;DHT22;17574;49.418;11.038;2022-07-10T13:24:05;22.40;1.00
30865;DHT22;17574;49.418;11.038;2022-07-10T13:26:32;22.60;1.00
30865;DHT22;17574;49.418;11.038;2022-07-10T13:28:59;22.70;1.00
30865;DHT22;17574;49.418;11.038;2022-07-10T13:31:25;23.40;1.00
30865;DHT22;17574;49.418;11.038;2022-07-10T13:33:52;24.60;1.00
30865;DHT22;17574;49.418;11.038;2022-07-10T13:36:19;25.30;1.00
30865;DHT22;17574;49.418;11.038;2022-07-10T13:38:46;24.90;1.00
30865;DHT22;17574;49.418;11.038;2022-07-10T13:41:16;25.20;1.00
30865;DHT22;17574;49.418;11.038;2022-07-10T13:43:43;24.90;1.00
30865;DHT22;17574;49.418;11.038;2022-07-10T13:46:10;24.40;1.00
30865;DHT22;17574;49.418;11.038;2022-07-10T13:48:36;24.20;1.00
30865;DHT22;17574;49.418;11.038;2022-07-10T13:51:04;24.20;1.00
30865;DHT22;17574;49.418;11.038;2022-07-10T13:53:31;24.20;1.00
30865;DHT22;17574;49.418;11.038;2022-07-10T13:55:57;23.90;1.00
30865;DHT22;17574;49.418;11.038;2022-07-10T13:58:25;23.70;1.00
30865;DHT22;17574;49.418;11.038;2022-07-10T14:00:52;23.40;1.00
30865;DHT22;17574;49.418;11.038;2022-07-10T14:03:19;23.50;1.00
30865;DHT22;17574;49.418;11.038;2022-07-10T14:05:46;23.70;1.00
30865;DHT22;17574;49.418;11.038;2022-07-10T14:08:14;23.80;1.00
30865;DHT22;17574;49.418;11.038;2022-07-10T14:10:40;24.20;1.00
30865;DHT22;17574;49.418;11.038;2022-07-10T14:13:07;24.10;1.00
30865;DHT22;17574;49.418;11.038;2022-07-10T14:15:38;24.50;1.00
30865;DHT22;17574;49.418;11.038;2022-07-10T14:18:04;24.70;1.00
30865;DHT22;17574;49.418;11.038;2022-07-10T14:20:31;24.60;1.00
30865;DHT22;17574;49.418;11.038;2022-07-10T14:23:18;24.40;1.00
30865;DHT22;17574;49.418;11.038;2022-07-10T14:25:45;24.40;1.00
30865;DHT22;17574;49.418;11.038;2022-07-10T14:28:11;24.10;1.00
30865;DHT22;17574;49.418;11.038;2022-07-10T14:30:40;24.10;1.00
30865;DHT22;17574;49.418;11.038;2022-07-10T14:33:06;24.10;1.00
30865;DHT22;17574;49.418;11.038;2022-07-10T14:35:33;24.10;1.00
30865;DHT22;17574;49.418;11.038;2022-07-10T14:38:00;24.10;1.00
30865;DHT22;17574;49.418;11.038;2022-07-10T14:40:26;24.00;1.00
30865;DHT22;17574;49.418;11.038;2022-07-10T14:42:53;24.00;1.00
30865;DHT22;17574;49.418;11.038;2022-07-10T14:45:23;24.20;1.00
30865;DHT22;17574;49.418;11.038;2022-07-10T14:48:12;24.50;1.00
30865;DHT22;17574;49.418;11.038;2022-07-10T14:50:39;24.60;1.00
30865;DHT22;17574;49.418;11.038;2022-07-10T14:53:06;24.70;1.00
30865;DHT22;17574;49.418;11.038;2022-07-10T14:55:34;24.70;1.00
30865;DHT22;17574;49.418;11.038;2022-07-10T14:58:01;24.40;1.00
30865;DHT22;17574;49.418;11.038;2022-07-10T15:00:27;24.10;1.00
30865;DHT22;17574;49.418;11.038;2022-07-10T15:02:54;24.00;1.00
30865;DHT22;17574;49.418;11.038;2022-07-10T15:05:29;24.10;1.00
30865;DHT22;17574;49.418;11.038;2022-07-10T15:07:55;24.40;1.00
30865;DHT22;17574;49.418;11.038;2022-07-10T15:10:22;24.10;1.00
30865;DHT22;17574;49.418;11.038;2022-07-10T15:12:49;23.90;1.00
30865;DHT22;17574;49.418;11.038;2022-07-10T15:15:16;23.80;1.00
30865;DHT22;17574;49.418;11.038;2022-07-10T15:17:42;23.60;1.00
30865;DHT22;17574;49.418;11.038;2022-07-10T15:20:10;23.80;1.00
30865;DHT22;17574;49.418;11.038;2022-07-10T15:22:37;23.40;1.00
30865;DHT22;17574;49.418;11.038;2022-07-10T15:25:04;23.40;1.00
30865;DHT22;17574;49.418;11.038;2022-07-10T15:27:31;23.50;1.00
30865;DHT22;17574;49.418;11.038;2022-07-10T15:29:57;23.40;1.00
30865;DHT22;17574;49.418;11.038;2022-07-10T15:32:24;23.20;1.00
30865;DHT22;17574;49.418;11.038;2022-07-10T15:34:51;23.30;1.00
30865;DHT22;17574;49.418;11.038;2022-07-10T15:37:17;23.60;1.00
30865;DHT22;17574;49.418;11.038;2022-07-10T15:39:44;23.40;1.00
30865;DHT22;17574;49.418;11.038;2022-07-10T15:42:11;23.50;1.00
30865;DHT22;17574;49.418;11.038;2022-07-10T15:44:38;23.60;1.00
30865;DHT22;17574;49.418;11.038;2022-07-10T15:47:05;23.60;1.00
30865;DHT22;17574;49.418;11.038;2022-07-10T15:49:31;23.30;1.00
30865;DHT22;17574;49.418;11.038;2022-07-10T15:51:58;23.20;1.00
30865;DHT22;17574;49.418;11.038;2022-07-10T15:54:26;23.20;1.00
30865;DHT22;17574;49.418;11.038;2022-07-10T15:56:53;22.80;1.00
30865;DHT22;17574;49.418;11.038;2022-07-10T15:59:19;22.70;1.00
30865;DHT22;17574;49.418;11.038;2022-07-10T16:01:50;22.50;1.00
30865;DHT22;17574;49.418;11.038;2022-07-10T16:04:17;22.30;1.00